Flight Track Log - Related Links

Times and Time Zones

All times are in EDT time to prevent confusion due to time zone crossing. See the N896CA flight status page for this flight to view local times or setup timezone preferences in your user account.

Time Position Orientation Groundspeed Altitude Reporting Facility
EDT Latitude Longitude Course Direction KTS MPH feet Rate Location/Type
Fri 07:33:02 PM 35.6439 -87.1511 18° North 251 289 4,600  Level Memphis Center
Fri 07:34:03 PM 35.6831 -87.1392 14° North 160 184 6,600 2,000 Climbing Memphis Center
Fri 07:35:02 PM 35.7203 -87.1225 20° North 127 146 8,600 1,966 Climbing Memphis Center
Fri 07:36:02 PM 35.7553 -87.1083 18° North 127 146 10,500 1,950 Climbing Memphis Center
Fri 07:37:02 PM 35.7947 -87.0989 11° North 127 146 12,500 1,800 Climbing Memphis Center
Fri 07:38:00 PM 36.0305 -87.0045 18° North  Level FlightAware
Fri 07:38:02 PM 35.8339 -87.0822 19° North 137 158 14,100  Level Memphis Center
Fri 07:39:02 PM 35.8711 -87.0703 15° North 143 165 16,000 1,800 Climbing Memphis Center
Fri 07:40:02 PM 35.9103 -87.0561 16° North 143 165 17,700 1,636 Climbing Memphis Center
Fri 07:41:03 PM 35.9453 -87.0417 18° North 143 165 19,300 1,450 Climbing Memphis Center
Fri 07:42:02 PM 35.9867 -87.0297 13° North 143 165 20,600 1,311 Climbing Memphis Center
Fri 07:43:02 PM 36.0322 -87.0150 15° North 148 170 21,900 1,200 Climbing Memphis Center
Fri 07:44:02 PM 36.0756 -86.9981 18° North 160 184 23,000 550 Climbing Memphis Center
Fri 07:45:02 PM 36.1333 -86.9775 16° North 196 226 23,000  Level Memphis Center
Fri 07:46:02 PM 36.2014 -86.9542 15° North 239 275 23,000  Level Memphis Center
Fri 07:47:02 PM 36.2758 -86.9306 14° North 265 305 23,000  Level Memphis Center
Fri 07:48:02 PM 36.3564 -86.8989 18° North 265 305 23,000  Level Memphis Center
Fri 07:49:02 PM 36.4347 -86.8747 14° North 277 319 23,000  Level Memphis Center
Fri 07:50:02 PM 36.5069 -86.8483 16° North 277 319 23,000  Level Memphis Center
Fri 07:51:02 PM 36.5792 -86.8219 16° North 277 319 23,000  Level Memphis Center
Fri 07:52:02 PM 36.6536 -86.7956 16° North 277 319 23,000  Level Memphis Center
Fri 07:53:02 PM 36.7217 -86.7717 16° North 277 319 23,000  Level Memphis Center
Fri 07:54:02 PM 36.7958 -86.7478 14° North 277 319 23,000  Level Memphis Center
Fri 07:56:03 PM 36.9406 -86.6944 16° North 273 314 23,000  Level Indianapolis Center
Fri 07:57:04 PM 37.0136 -86.6692 15° North 271 312 23,000  Level Indianapolis Center
Fri 07:58:07 PM 37.0861 -86.6433 16° North 269 310 23,000  Level Indianapolis Center
Fri 07:59:07 PM 37.1583 -86.6169 16° North 267 307 23,000  Level Indianapolis Center
Fri 08:00:11 PM 37.2450 -86.5872 15° North 274 315 23,000  Level Indianapolis Center
Fri 08:01:12 PM 37.3169 -86.5606 16° North 268 308 23,000  Level Indianapolis Center
Fri 08:02:12 PM 37.3894 -86.5347 16° North 267 307 23,000  Level Indianapolis Center
Fri 08:03:16 PM 37.4597 -86.5106 15° North 260 299 23,000  Level Indianapolis Center
Fri 08:04:16 PM 37.5319 -86.4850 16° North 265 305 23,000  Level Indianapolis Center
Fri 08:05:18 PM 37.6022 -86.4600 16° North 260 299 23,000  Level Indianapolis Center
Fri 08:06:21 PM 37.6736 -86.4342 16° North 264 304 23,000  Level Indianapolis Center
Fri 08:07:21 PM 37.7450 -86.4097 15° North 263 303 23,000  Level Indianapolis Center
Fri 08:08:23 PM 37.8128 -86.3850 16° North 261 300 23,000  Level Indianapolis Center
Fri 08:09:27 PM 37.8969 -86.3539 16° North 262 302 23,000  Level Indianapolis Center
Fri 08:10:27 PM 37.9656 -86.3303 15° North 257 296 23,000  Level Indianapolis Center
Fri 08:11:31 PM 38.0339 -86.3050 16° North 256 295 23,000  Level Indianapolis Center
Fri 08:12:31 PM 38.1019 -86.2792 17° North 256 295 23,000  Level Indianapolis Center
Fri 08:13:32 PM 38.1703 -86.2553 15° North 255 293 23,000  Level Indianapolis Center
Fri 08:14:34 PM 38.2378 -86.2317 15° North 252 290 23,000  Level Indianapolis Center
Fri 08:15:37 PM 38.3050 -86.2067 16° North 252 290 23,000  Level Indianapolis Center
Fri 08:16:37 PM 38.3853 -86.1769 16° North 251 289 23,000  Level Indianapolis Center
Fri 08:17:38 PM 38.4519 -86.1531 16° North 249 287 23,000  Level Indianapolis Center
Fri 08:18:42 PM 38.5183 -86.1289 16° North 247 284 23,000  Level Indianapolis Center
Fri 08:19:43 PM 38.5856 -86.1033 17° North 250 288 23,000  Level Indianapolis Center
Fri 08:20:44 PM 38.6508 -86.0806 15° North 245 282 23,000  Level Indianapolis Center
Fri 08:21:45 PM 38.7156 -86.0547 17° North 241 277 23,000  Level Indianapolis Center
Fri 08:22:49 PM 38.7808 -86.0322 15° North 241 277 23,000  Level Indianapolis Center
Fri 08:23:50 PM 38.8456 -86.0075 17° North 242 278 23,000  Level Indianapolis Center
Fri 08:24:52 PM 38.9100 -85.9839 16° North 239 275 23,000  Level Indianapolis Center
Fri 08:25:53 PM 38.9869 -85.9544 17° North 240 276 23,000  Level Indianapolis Center
Fri 08:26:54 PM 39.0494 -85.9303 17° North 238 274 23,000  Level Indianapolis Center
Fri 08:27:57 PM 39.1136 -85.9072 16° North 239 275 23,000  Level Indianapolis Center
Fri 08:28:58 PM 39.1769 -85.8831 16° North 238 274 23,000  Level Indianapolis Center
Fri 08:29:58 PM 39.2397 -85.8589 17° North 238 274 23,000  Level Indianapolis Center
Fri 08:31:01 PM 39.3033 -85.8356 16° North 239 275 23,000  Level Indianapolis Center
Fri 08:32:04 PM 39.3664 -85.8128 16° North 238 274 23,000  Level Indianapolis Center
Fri 08:33:05 PM 39.4419 -85.7828 17° North 238 274 23,000  Level Indianapolis Center
Fri 08:34:06 PM 39.5061 -85.7594 16° North 240 276 23,000  Level Indianapolis Center
Fri 08:35:06 PM 39.5697 -85.7350 16° North 239 275 23,000  Level Indianapolis Center
Fri 08:36:11 PM 39.6339 -85.7106 16° North 241 277 23,000  Level Indianapolis Center
Fri 08:37:12 PM 39.6983 -85.6864 16° North 243 280 23,000  Level Indianapolis Center
Fri 08:38:12 PM 39.7750 -85.6575 16° North 241 277 23,000  Level Indianapolis Center
Fri 08:39:16 PM 39.8383 -85.6319 17° North 240 276 23,000  Level Indianapolis Center
Fri 08:40:16 PM 39.9033 -85.6078 16° North 243 280 23,000  Level Indianapolis Center
Fri 08:41:18 PM 39.9675 -85.5842 16° North 242 278 23,000  Level Indianapolis Center
Fri 08:42:20 PM 40.0322 -85.5592 16° North 244 281 23,000  Level Indianapolis Center
Fri 08:43:21 PM 40.0958 -85.5331 17° North 242 278 23,000  Level Indianapolis Center
Fri 08:44:22 PM 40.1742 -85.5036 16° North 245 282 23,000  Level Indianapolis Center
Fri 08:45:26 PM 40.2378 -85.4781 17° North 241 277 23,000  Level Indianapolis Center
Fri 08:46:26 PM 40.3031 -85.4536 16° North 243 280 23,000  Level Indianapolis Center
Fri 08:47:27 PM 40.3678 -85.4275 17° North 244 281 23,000  Level Indianapolis Center
Fri 08:48:23 PM 40.4344 -85.4017 16° North 246 283 23,000  Level Chicago Center
Fri 08:49:25 PM 40.5003 -85.3767 16° North 247 284 23,000  Level Chicago Center
Fri 08:50:28 PM 40.5650 -85.3497 18° North 247 284 23,000  Level Chicago Center
Fri 08:51:30 PM 40.6311 -85.3244 16° North 247 284 23,000  Level Chicago Center
Fri 08:52:32 PM 40.7044 -85.2939 18° North 249 287 23,000 -387 Level Chicago Center
Fri 08:53:34 PM 40.7728 -85.2675 16° North 253 291 22,200 -968 Descending Chicago Center
Fri 08:54:36 PM 40.8472 -85.2392 16° North 271 312 21,000 -581 Descending Chicago Center
Fri 08:55:38 PM 40.9189 -85.2106 17° North 272 313 21,000 -339 Level Chicago Center
Fri 08:56:40 PM 40.9994 -85.1769 17° North 257 296 20,300 -677 Descending Chicago Center
Fri 08:57:42 PM 41.0714 -85.1508 15° North 266 306 19,600 -629 Descending Chicago Center
Fri 08:58:44 PM 41.1436 -85.1231 16° North 270 311 19,000 -290 Descending Chicago Center
Fri 08:59:46 PM 41.2131 -85.0964 16° North 265 305 19,000  Level Chicago Center
Fri 09:00:48 PM 41.2803 -85.0697 17° North 256 295 19,000  Level Chicago Center
Fri 09:01:50 PM 41.3608 -85.0400 15° North 252 290 19,000 -48 Level Chicago Center
Fri 09:02:53 PM 41.4253 -85.0083 20° North 250 288 18,900 -528 Descending Chicago Center
Fri 09:03:55 PM 41.4697 -84.9347 51° Northeast 256 295 17,900 -823 Descending Chicago Center
Fri 09:04:57 PM 41.5172 -84.8608 49° Northeast 263 303 17,200 -823 Descending Chicago Center
Fri 09:05:59 PM 41.5642 -84.7856 50° Northeast 265 305 16,200 -919 Descending Chicago Center
Fri 09:07:01 PM 41.6222 -84.6975 49° Northeast 265 305 15,300 -823 Descending Chicago Center
Fri 09:08:03 PM 41.6697 -84.6225 50° Northeast 266 306 14,500 -821 Descending Chicago Center
Fri 09:08:36 PM 41.6964 -84.5769 52° Northeast 263 303 14,000 -839 Descending Cleveland Center
Fri 09:09:36 PM 41.7447 -84.5047 48° Northeast 263 303 13,200 -800 Descending Cleveland Center
Fri 09:10:36 PM 41.7911 -84.4325 49° Northeast 263 303 12,400 -800 Descending Cleveland Center
Fri 09:11:36 PM 41.8394 -84.3572 49° Northeast 263 303 11,600 -800 Descending Cleveland Center
Fri 09:12:36 PM 41.8856 -84.2847 49° Northeast 263 303 10,800 -800 Descending Cleveland Center

Login

Don't have an account? Register now (free) for customized features, flight alerts, and more!